Time;durP1;ratioP1;P1;durP2;ratioP2;P2;SDS_P1;SDS_P2;PMS_P1;PMS_P2;Temp;Humidity;BMP_temperature;BMP_pressure;BME280_temperature;BME280_humidity;BME280_pressure;Samples;Min_cycle;Max_cycle;Signal;HPM_P1;HPM_P2
2021/10/01 00:00:10;;;;;;;9.10;4.97;;;;;;;3.78;49.40;100506.31;4886725;29;20059;-75
2021/10/01 00:02:36;;;;;;;8.35;5.40;;;;;;;3.85;49.22;100506.03;4902979;29;20048;-75
2021/10/01 00:05:02;;;;;;;8.73;5.50;;;;;;;3.82;49.42;100484.97;4902911;29;20058;-75
2021/10/01 00:07:28;;;;;;;10.07;6.70;;;;;;;3.86;49.41;100496.31;4903524;29;20134;-76
2021/10/01 00:09:54;;;;;;;13.05;5.50;;;;;;;3.85;49.06;100491.97;4906225;29;20475;-75
2021/10/01 00:12:20;;;;;;;5.85;4.90;;;;;;;3.89;49.30;100490.94;4905928;29;20051;-76
2021/10/01 00:14:46;;;;;;;7.50;4.30;;;;;;;3.90;49.52;100497.94;4905877;29;20079;-74
2021/10/01 00:17:12;;;;;;;8.15;4.57;;;;;;;3.89;49.32;100497.09;4906502;29;20503;-75
2021/10/01 00:19:39;;;;;;;5.93;4.40;;;;;;;3.96;49.00;100504.81;4906050;29;20495;-75
2021/10/01 00:22:05;;;;;;;9.77;5.15;;;;;;;3.99;49.19;100504.72;4905934;29;20498;-75
2021/10/01 00:24:31;;;;;;;7.50;4.57;;;;;;;4.02;49.16;100513.38;4906034;29;20109;-78
2021/10/01 00:26:57;;;;;;;6.35;4.00;;;;;;;4.05;49.02;100513.28;4905890;29;20510;-74
2021/10/01 00:29:23;;;;;;;8.75;5.13;;;;;;;4.01;48.88;100508.16;4938410;29;20044;-74
2021/10/01 00:31:49;;;;;;;9.18;4.57;;;;;;;4.04;49.18;100510.72;4905848;29;20047;-75
2021/10/01 00:34:15;;;;;;;7.78;4.78;;;;;;;3.94;49.23;100499.56;4905684;29;20055;-75
2021/10/01 00:36:41;;;;;;;8.70;4.60;;;;;;;3.90;49.28;100503.22;4921540;29;20039;-74
2021/10/01 00:39:07;;;;;;;8.55;4.57;;;;;;;4.02;49.13;100508.09;4905953;29;20043;-75
2021/10/01 00:41:33;;;;;;;8.20;4.78;;;;;;;4.05;49.14;100508.00;4906053;29;20439;-74
2021/10/01 00:43:59;;;;;;;8.98;5.35;;;;;;;4.04;48.89;100495.69;4890051;29;20146;-73
2021/10/01 00:46:25;;;;;;;8.25;4.80;;;;;;;4.00;48.92;100499.38;4921573;29;20081;-75
2021/10/01 00:48:51;;;;;;;6.80;4.43;;;;;;;3.87;49.13;100482.16;4905543;29;20039;-75
2021/10/01 00:51:17;;;;;;;12.05;5.25;;;;;;;3.71;49.37;100473.91;4905550;29;20047;-75
2021/10/01 00:53:44;;;;;;;9.65;4.72;;;;;;;3.65;49.43;100477.63;4889691;29;20039;-75
2021/10/01 00:56:10;;;;;;;13.32;4.72;;;;;;;3.62;49.39;100477.72;4905021;29;20101;-76
2021/10/01 00:58:36;;;;;;;7.40;4.55;;;;;;;3.60;49.78;100484.84;4921295;29;20056;-74
2021/10/01 01:01:11;;;;;;;8.00;4.00;;;;;;;3.60;49.78;100499.84;4889617;29;20615;-74
2021/10/01 01:03:59;;;;;;;6.80;3.97;;;;;;;3.54;49.93;100498.28;4906431;29;20052;-75
2021/10/01 01:06:38;;;;;;;10.20;5.35;;;;;;;3.57;49.68;100508.75;4921114;29;20114;-76
2021/10/01 01:09:10;;;;;;;5.30;3.88;;;;;;;3.44;49.83;100502.13;4905256;29;20043;-75
2021/10/01 01:11:58;;;;;;;5.65;4.28;;;;;;;3.28;49.98;100485.03;4920755;29;20044;-75
2021/10/01 01:14:34;;;;;;;9.18;4.05;;;;;;;3.25;49.88;100488.63;4905638;29;20056;-76
2021/10/01 01:17:00;;;;;;;7.95;4.10;;;;;;;3.28;49.88;100503.53;4905218;29;20111;-74
2021/10/01 01:20:15;;;;;;;11.65;4.20;;;;;;;3.20;50.51;100500.25;4904172;29;20399;-76
2021/10/01 01:22:59;;;;;;;8.23;4.18;;;;;;;3.20;50.15;100495.84;4882124;29;20115;-76
2021/10/01 01:26:03;;;;;;;6.20;3.90;;;;;;;3.21;50.09;100502.00;4923554;29;20566;-76
2021/10/01 01:28:49;;;;;;;8.35;4.28;;;;;;;3.10;50.55;100500.53;4885023;29;20055;-76
2021/10/01 01:31:25;;;;;;;7.25;4.70;;;;;;;3.11;50.40;100501.41;4920826;29;20055;-77
2021/10/01 01:33:51;;;;;;;5.65;4.15;;;;;;;3.04;50.61;100492.78;4905815;29;20055;-74
2021/10/01 01:36:17;;;;;;;7.22;4.63;;;;;;;3.00;50.36;100499.09;4904841;29;20134;-75
2021/10/01 01:38:46;;;;;;;8.90;4.55;;;;;;;2.94;50.61;100515.13;4904471;29;20048;-77
2021/10/01 01:41:12;;;;;;;12.63;4.50;;;;;;;2.91;50.78;100508.16;4904560;29;20063;-75
2021/10/01 01:43:40;;;;;;;11.23;4.70;;;;;;;2.90;50.77;100487.09;4904486;29;20523;-76
2021/10/01 01:46:06;;;;;;;6.22;4.30;;;;;;;2.97;50.91;100508.88;4888656;29;20043;-76
2021/10/01 01:48:32;;;;;;;7.50;5.60;;;;;;;2.88;50.65;100489.75;4904043;29;20047;-77
2021/10/01 01:50:58;;;;;;;9.90;4.45;;;;;;;3.02;50.71;100507.84;4904544;29;20498;-74
2021/10/01 01:53:25;;;;;;;6.70;3.92;;;;;;;3.01;50.72;100510.50;4903989;29;20139;-77
2021/10/01 01:55:51;;;;;;;7.35;4.15;;;;;;;2.92;51.07;100494.03;4904793;29;20055;-75
2021/10/01 01:58:18;;;;;;;9.38;4.90;;;;;;;3.01;51.12;100500.84;4889617;29;20043;-75
2021/10/01 02:01:07;;;;;;;7.20;4.38;;;;;;;2.95;51.02;100490.44;4889258;29;20507;-77
2021/10/01 02:03:38;;;;;;;15.10;4.45;;;;;;;2.99;50.98;100489.44;4905018;29;20047;-76
2021/10/01 02:06:11;;;;;;;5.82;4.20;;;;;;;3.07;50.98;100505.06;4905513;29;20048;-76
2021/10/01 02:08:37;;;;;;;15.00;5.40;;;;;;;3.04;50.97;100500.72;4920494;29;20095;-76
2021/10/01 02:11:04;;;;;;;12.02;3.90;;;;;;;3.08;50.94;100502.34;4905930;29;20067;-76
2021/10/01 02:13:31;;;;;;;7.13;4.50;;;;;;;3.10;51.04;100515.53;4904707;29;20066;-75
2021/10/01 02:16:08;;;;;;;11.90;4.32;;;;;;;3.08;51.16;100510.28;4890294;29;20040;-75
2021/10/01 02:18:34;;;;;;;9.25;3.90;;;;;;;3.10;50.91;100516.38;4904071;29;20499;-74
2021/10/01 02:21:00;;;;;;;11.25;4.10;;;;;;;3.11;51.22;100511.97;4903813;29;20050;-74
2021/10/01 02:23:26;;;;;;;8.70;5.68;;;;;;;3.06;51.08;100519.19;4919239;29;20048;-75
2021/10/01 02:28:49;;;;;;;9.75;3.78;;;;;;;3.12;51.58;100509.31;4908197;29;20054;-76
2021/10/01 02:31:18;;;;;;;5.80;4.15;;;;;;;3.13;50.95;100515.44;4903687;29;20051;-75
2021/10/01 02:33:45;;;;;;;;;;;;;;;3.20;50.87;100518.75;4888189;29;20077;-74
2021/10/01 02:36:11;;;;;;;11.57;4.03;;;;;;;2.99;51.41;100507.94;4902714;29;20037;-76
2021/10/01 02:38:41;;;;;;;8.23;4.00;;;;;;;3.12;51.09;100535.72;4888597;29;20147;-77
2021/10/01 02:41:07;;;;;;;11.13;4.30;;;;;;;3.19;51.19;100538.16;4903525;29;20514;-77
2021/10/01 02:43:33;;;;;;;7.70;3.63;;;;;;;3.21;51.22;100528.41;4902948;29;20040;-76
2021/10/01 02:45:59;;;;;;;8.98;4.30;;;;;;;3.16;51.11;100515.34;4934315;29;20071;-76
2021/10/01 02:48:25;;;;;;;9.30;4.38;;;;;;;3.26;51.29;100532.63;4902982;29;20529;-75
2021/10/01 02:50:52;;;;;;;13.15;4.45;;;;;;;3.24;51.10;100521.25;4887066;29;20254;-75
2021/10/01 02:53:35;;;;;;;12.60;5.43;;;;;;;3.40;50.97;100538.34;4902703;29;20039;-73
2021/10/01 02:56:13;;;;;;;11.18;4.40;;;;;;;3.34;51.09;100516.53;4903353;29;20414;-74
2021/10/01 02:58:41;;;;;;;11.43;4.27;;;;;;;3.34;50.85;100520.03;4887502;29;20043;-74
2021/10/01 03:01:09;;;;;;;11.52;5.03;;;;;;;3.53;50.86;100533.53;4918362;29;20089;-74
2021/10/01 03:03:43;;;;;;;14.38;4.85;;;;;;;3.64;50.84;100538.47;4887069;29;20043;-76
2021/10/01 03:06:09;;;;;;;13.52;4.55;;;;;;;3.74;50.51;100536.41;4902902;29;20550;-76
2021/10/01 03:08:35;;;;;;;13.73;5.85;;;;;;;3.78;50.43;100538.03;4902823;29;20404;-74
2021/10/01 03:11:02;;;;;;;23.48;5.85;;;;;;;3.85;50.77;100529.00;4902795;29;20058;-75
2021/10/01 03:13:28;;;;;;;10.05;3.53;;;;;;;4.08;50.17;100536.13;4902600;29;20058;-76
2021/10/01 03:15:57;;;;;;;10.43;4.50;;;;;;;4.18;50.11;100529.63;4903227;29;20585;-76
2021/10/01 03:18:23;;;;;;;9.95;4.53;;;;;;;4.43;49.62;100548.13;4902595;29;20131;-76
2021/10/01 03:20:49;;;;;;;8.57;4.20;;;;;;;4.60;49.11;100547.53;4902517;29;20043;-77
2021/10/01 03:23:16;;;;;;;12.98;4.55;;;;;;;4.73;48.96;100554.09;4887394;29;20083;-76
2021/10/01 03:25:42;;;;;;;15.13;4.80;;;;;;;4.87;50.17;100556.25;4887060;29;20043;-74
2021/10/01 03:28:09;;;;;;;8.88;4.43;;;;;;;5.03;48.76;100544.16;4902327;29;20391;-75
2021/10/01 03:30:35;;;;;;;14.90;5.30;;;;;;;5.08;48.09;100552.81;4886589;29;20671;-75
2021/10/01 03:33:00;;;;;;;20.17;4.97;;;;;;;5.12;48.20;100561.50;4902626;29;20051;-74
2021/10/01 03:35:27;;;;;;;10.15;4.68;;;;;;;5.15;48.06;100555.22;4902527;29;20043;-76
2021/10/01 03:37:53;;;;;;;33.90;5.63;;;;;;;5.14;48.07;100551.69;4902317;29;20055;-76
2021/10/01 03:40:23;;;;;;;25.38;4.45;;;;;;;5.17;47.83;100562.19;4903418;29;20048;-74
2021/10/01 03:42:49;;;;;;;13.77;4.63;;;;;;;5.22;47.62;100564.66;4903906;29;20039;-76
2021/10/01 03:45:20;;;;;;;12.80;5.07;;;;;;;5.22;47.77;100562.00;4922407;29;20491;-75
2021/10/01 03:47:45;;;;;;;13.82;4.65;;;;;;;5.13;47.89;100554.41;4906395;29;20126;-75
2021/10/01 03:50:11;;;;;;;7.32;4.15;;;;;;;5.01;47.56;100543.38;4906067;29;20360;-75
2021/10/01 03:52:38;;;;;;;10.73;4.50;;;;;;;5.09;47.51;100559.84;4906461;29;20109;-74
2021/10/01 03:55:06;;;;;;;9.45;4.32;;;;;;;5.06;47.55;100552.00;4890540;29;20051;-74
2021/10/01 03:57:33;;;;;;;11.23;4.15;;;;;;;4.99;47.54;100534.59;4891451;29;20063;-75
2021/10/01 04:00:05;;;;;;;5.45;4.55;;;;;;;5.08;47.33;100555.47;4907184;29;20052;-75
2021/10/01 04:02:39;;;;;;;12.63;4.60;;;;;;;5.16;47.07;100567.56;4938558;29;20051;-77
2021/10/01 04:05:06;;;;;;;16.35;4.30;;;;;;;5.13;47.31;100547.31;4891059;29;20082;-77
2021/10/01 04:07:32;;;;;;;11.38;4.47;;;;;;;5.24;47.25;100565.47;4890965;29;20048;-75
2021/10/01 04:09:58;;;;;;;10.38;5.22;;;;;;;5.25;47.23;100568.06;4906020;29;20048;-76
2021/10/01 04:12:24;;;;;;;36.75;5.18;;;;;;;5.32;47.04;100568.69;4906643;29;20044;-78
2021/10/01 04:14:50;;;;;;;17.02;5.68;;;;;;;5.30;47.15;100554.63;4890124;29;20062;-76
2021/10/01 04:17:16;;;;;;;10.85;4.47;;;;;;;5.43;47.07;100573.56;4891120;29;20039;-76
2021/10/01 04:19:43;;;;;;;12.00;4.40;;;;;;;5.48;47.26;100568.94;4906229;29;20570;-77
2021/10/01 04:22:09;;;;;;;7.45;4.10;;;;;;;5.54;47.14;100566.91;4905582;29;20043;-77
2021/10/01 04:24:55;;;;;;;5.00;3.67;;;;;;;5.57;47.19;100574.75;4904681;29;20071;-76
2021/10/01 04:27:21;;;;;;;7.40;4.05;;;;;;;5.59;47.16;100580.84;4905716;29;20055;-75
2021/10/01 04:29:47;;;;;;;9.73;4.32;;;;;;;5.52;47.13;100560.81;4905981;29;20049;-75
2021/10/01 04:32:13;;;;;;;12.85;4.35;;;;;;;5.64;47.38;100582.47;4921610;29;20046;-79
2021/10/01 04:35:03;;;;;;;12.40;3.88;;;;;;;5.69;47.44;100564.59;4890164;29;20052;-78
2021/10/01 04:37:26;;;;;;;9.70;3.90;;;;;;;5.73;47.07;100563.53;4879452;29;20427;-77
2021/10/01 04:39:53;;;;;;;10.98;4.43;;;;;;;5.85;47.17;100574.50;4905602;29;20531;-76
2021/10/01 04:42:19;;;;;;;10.50;4.32;;;;;;;5.99;47.15;100571.31;4905375;29;20074;-74
2021/10/01 04:44:45;;;;;;;6.88;3.70;;;;;;;6.05;47.14;100564.88;4905614;29;20059;-77
2021/10/01 04:47:11;;;;;;;6.07;3.88;;;;;;;6.16;46.69;100581.22;4889763;29;20043;-76
2021/10/01 04:49:37;;;;;;;14.98;3.90;;;;;;;6.27;49.76;100573.66;4904851;29;20066;-77
2021/10/01 04:52:03;;;;;;;8.00;3.95;;;;;;;6.48;48.73;100579.84;4937999;29;20066;-76
2021/10/01 04:54:29;;;;;;;10.32;4.10;;;;;;;6.58;48.09;100572.34;4888608;29;20138;-80
2021/10/01 04:56:55;;;;;;;7.00;4.18;;;;;;;6.70;47.04;100582.44;4905449;29;20384;-80
2021/10/01 04:59:25;;;;;;;14.95;4.75;;;;;;;6.81;46.16;100577.50;4906025;29;20055;-76
2021/10/01 05:02:23;;;;;;;9.48;4.47;;;;;;;6.75;46.24;100582.22;4905736;29;20063;-77
2021/10/01 05:04:59;;;;;;;12.60;4.68;;;;;;;6.72;46.40;100590.34;4907026;29;20094;-76
2021/10/01 05:07:46;;;;;;;16.35;5.03;;;;;;;6.74;46.22;100585.84;4894475;29;20134;-75
2021/10/01 05:10:30;;;;;;;10.77;5.72;;;;;;;6.68;46.24;100568.34;4910362;29;20142;-78
2021/10/01 05:13:15;;;;;;;11.73;4.70;;;;;;;6.74;46.34;100575.19;4894288;29;20039;-77
2021/10/01 05:16:02;;;;;;;11.75;5.00;;;;;;;6.77;46.42;100575.03;4923111;29;20040;-76
2021/10/01 05:18:46;;;;;;;9.90;5.65;;;;;;;6.84;46.42;100575.63;4894791;29;20522;-76
2021/10/01 05:21:31;;;;;;;10.40;4.72;;;;;;;6.89;46.42;100574.50;4910107;29;20051;-76
2021/10/01 05:24:01;;;;;;;9.43;5.90;;;;;;;6.97;46.12;100577.69;4890272;29;20055;-75
2021/10/01 05:26:27;;;;;;;13.80;5.82;;;;;;;7.06;46.45;100579.03;4905488;29;20146;-76
2021/10/01 05:28:55;;;;;;;10.77;5.63;;;;;;;7.20;46.08;100575.75;4904827;29;20495;-76
2021/10/01 05:31:21;;;;;;;11.18;5.97;;;;;;;7.24;46.11;100569.38;4905502;29;20609;-76
2021/10/01 05:33:47;;;;;;;19.65;6.35;;;;;;;7.50;45.94;100568.13;4904522;29;20062;-75
2021/10/01 05:36:13;;;;;;;15.57;6.40;;;;;;;7.62;45.70;100553.38;4904948;29;20182;-77
2021/10/01 05:38:39;;;;;;;8.63;5.97;;;;;;;7.78;45.71;100565.88;4904650;29;20495;-75
2021/10/01 05:41:05;;;;;;;12.45;6.05;;;;;;;7.97;45.12;100564.94;4905229;29;20052;-77
2021/10/01 05:43:32;;;;;;;13.88;6.47;;;;;;;7.97;45.10;100571.16;4889336;29;20043;-77
2021/10/01 05:45:59;;;;;;;12.27;4.95;;;;;;;7.84;45.03;100559.38;4904869;29;20134;-77
2021/10/01 05:48:50;;;;;;;9.40;5.15;;;;;;;7.84;45.56;100575.34;4894525;29;20046;-75
2021/10/01 05:51:36;;;;;;;13.73;4.93;;;;;;;7.82;45.96;100573.69;4895609;29;20106;-78
2021/10/01 05:54:23;;;;;;;10.95;5.28;;;;;;;7.83;46.26;100575.44;4923468;29;20130;-79
2021/10/01 05:57:09;;;;;;;7.43;5.28;;;;;;;7.85;46.13;100571.75;4907121;29;20047;-78
2021/10/01 06:00:01;;;;;;;9.55;4.60;;;;;;;7.90;46.29;100571.50;4921604;29;20103;-76
2021/10/01 06:02:27;;;;;;;13.55;5.07;;;;;;;7.97;46.01;100581.81;4903880;29;20048;-76
2021/10/01 06:04:54;;;;;;;7.28;4.72;;;;;;;7.98;45.73;100561.38;4918498;29;20558;-76
2021/10/01 06:07:20;;;;;;;8.35;4.38;;;;;;;8.18;45.88;100574.53;4889433;29;20138;-77
2021/10/01 06:09:46;;;;;;;6.78;4.40;;;;;;;8.36;45.40;100577.22;4919766;29;20102;-77
2021/10/01 06:12:13;;;;;;;8.50;4.38;;;;;;;8.52;45.35;100571.03;4889175;29;20561;-76
2021/10/01 06:14:39;;;;;;;9.73;5.28;;;;;;;8.81;45.10;100573.13;4890178;29;20176;-77
2021/10/01 06:17:05;;;;;;;7.50;5.05;;;;;;;9.06;44.55;100572.66;4891445;29;20044;-76
2021/10/01 06:19:33;;;;;;;10.02;4.97;;;;;;;9.27;43.95;100566.16;4889708;29;20647;-76
2021/10/01 06:22:00;;;;;;;7.70;5.03;;;;;;;9.55;43.49;100575.28;4888529;29;20047;-75
2021/10/01 06:24:26;;;;;;;8.90;5.50;;;;;;;9.61;43.20;100548.25;4904174;29;20070;-76
2021/10/01 06:26:52;;;;;;;8.70;5.60;;;;;;;9.70;42.91;100563.72;4918952;29;20129;-77
2021/10/01 06:29:18;;;;;;;7.55;5.25;;;;;;;9.62;43.21;100552.63;4917557;29;20043;-76
2021/10/01 06:31:44;;;;;;;11.00;5.20;;;;;;;9.66;43.09;100564.84;4901598;29;20495;-75
2021/10/01 06:34:10;;;;;;;14.48;5.53;;;;;;;9.63;43.28;100562.38;4902860;29;20118;-76
2021/10/01 06:36:36;;;;;;;12.55;5.22;;;;;;;9.77;43.59;100551.75;4903615;29;20052;-76
2021/10/01 06:39:03;;;;;;;9.80;6.22;;;;;;;10.02;43.11;100558.38;4888073;29;20070;-77
2021/10/01 06:41:29;;;;;;;14.88;6.00;;;;;;;10.27;42.50;100558.69;4887452;29;20051;-76
2021/10/01 06:44:04;;;;;;;14.35;5.82;;;;;;;10.48;42.50;100551.19;4903012;29;20095;-76
2021/10/01 06:46:49;;;;;;;20.23;7.32;;;;;;;10.64;42.09;100551.09;4889179;29;20040;-75
2021/10/01 08:19:28;;;;;;;8.40;3.30;;;;;;;12.05;50.62;100553.69;4892019;29;20048;-75
2021/10/01 08:21:56;;;;;;;6.07;3.70;;;;;;;12.16;50.82;100561.00;4903311;29;20043;-77
2021/10/01 08:24:22;;;;;;;7.45;3.40;;;;;;;12.26;50.32;100556.75;4887271;29;20056;-76
2021/10/01 08:26:49;;;;;;;8.73;3.70;;;;;;;12.34;49.81;100541.00;4918065;29;20107;-77
2021/10/01 08:29:15;;;;;;;10.55;2.97;;;;;;;12.44;49.59;100537.69;4904522;29;20043;-77
2021/10/01 08:31:41;;;;;;;6.32;3.45;;;;;;;12.27;50.24;100550.44;4905825;29;20138;-76
2021/10/01 08:34:07;;;;;;;4.90;3.38;;;;;;;12.32;49.91;100540.25;4905782;29;20529;-76
2021/10/01 08:36:33;;;;;;;5.40;3.15;;;;;;;12.51;49.68;100547.88;4905908;29;20546;-76
2021/10/01 08:39:04;;;;;;;9.88;3.20;;;;;;;12.46;49.84;100535.78;4906419;29;20044;-77
2021/10/01 08:41:30;;;;;;;5.45;3.15;;;;;;;12.25;50.41;100538.94;4906131;29;20058;-76
2021/10/01 08:43:56;;;;;;;3.75;3.30;;;;;;;11.94;51.31;100541.97;4905065;29;20048;-76
2021/10/01 08:46:22;;;;;;;7.03;3.60;;;;;;;11.90;51.25;100539.50;4905683;29;20413;-75
2021/10/01 08:48:48;;;;;;;6.57;3.20;;;;;;;12.10;50.92;100548.88;4889581;29;20043;-77
2021/10/01 08:51:15;;;;;;;5.13;3.40;;;;;;;11.90;51.50;100549.34;4889753;29;20047;-76
2021/10/01 08:53:40;;;;;;;3.30;3.00;;;;;;;11.72;51.60;100535.31;4920934;29;20447;-78
2021/10/01 08:56:07;;;;;;;3.92;3.35;;;;;;;11.73;51.51;100536.16;4905295;29;20057;-77
2021/10/01 08:58:33;;;;;;;3.95;3.30;;;;;;;11.87;51.80;100536.16;4889762;29;20525;-77
2021/10/01 09:01:00;;;;;;;8.20;3.10;;;;;;;11.94;51.64;100555.38;4889470;29;20071;-76
2021/10/01 09:03:26;;;;;;;3.95;3.53;;;;;;;11.61;52.05;100543.19;4919889;29;20058;-76
2021/10/01 09:05:52;;;;;;;6.10;3.20;;;;;;;11.68;53.16;100553.41;4909763;29;20043;-83
2021/10/01 09:08:22;;;;;;;7.95;3.17;;;;;;;11.95;53.23;100546.38;4920868;29;20514;-78
2021/10/01 09:10:59;;;;;;;6.00;3.25;;;;;;;12.40;52.43;100551.28;4921241;29;20047;-78
2021/10/01 09:13:26;;;;;;;3.58;3.28;;;;;;;12.59;51.23;100555.41;4920786;29;20076;-78
2021/10/01 09:16:03;;;;;;;5.43;3.25;;;;;;;12.68;50.91;100552.09;4936432;29;20070;-79
2021/10/01 09:18:30;;;;;;;6.38;3.40;;;;;;;12.83;51.19;100551.03;4905217;29;20463;-79
2021/10/01 09:21:22;;;;;;;5.00;3.17;;;;;;;12.85;50.02;100554.44;4920693;29;20040;-77
2021/10/01 09:24:00;;;;;;;6.35;3.30;;;;;;;13.22;50.37;100553.66;4932794;29;20550;-78
2021/10/01 09:26:27;;;;;;;5.28;3.30;;;;;;;13.34;50.19;100545.59;4920162;29;20039;-80
2021/10/01 09:28:56;;;;;;;6.82;3.92;;;;;;;13.47;51.22;100544.72;4920543;29;20130;-79
2021/10/01 09:31:46;;;;;;;5.78;3.22;;;;;;;13.91;48.46;100524.44;4920791;29;20483;-80
2021/10/01 09:34:45;;;;;;;7.68;2.85;;;;;;;14.11;47.79;100539.94;4906388;29;20086;-80
2021/10/01 09:37:13;;;;;;;5.88;2.63;;;;;;;14.32;47.26;100537.44;4921260;29;20063;-83
2021/10/01 09:39:49;;;;;;;3.03;2.72;;;;;;;15.16;46.49;100536.25;4905217;29;20055;-80
2021/10/01 09:42:17;;;;;;;8.82;3.28;;;;;;;15.91;45.71;100535.53;4905717;29;20079;-78
2021/10/01 09:44:45;;;;;;;3.45;3.08;;;;;;;16.46;43.76;100546.19;4937179;29;20044;-82
2021/10/01 09:47:11;;;;;;;4.97;2.92;;;;;;;16.25;42.41;100530.84;4888861;29;20047;-81
2021/10/01 09:49:37;;;;;;;3.90;3.50;;;;;;;16.07;42.03;100545.88;4918132;29;20055;-82
2021/10/01 09:52:03;;;;;;;7.43;3.85;;;;;;;15.33;43.17;100550.19;4935363;29;20517;-81
2021/10/01 09:54:29;;;;;;;6.35;3.28;;;;;;;15.86;44.17;100543.13;4905705;29;20044;-83
2021/10/01 09:57:04;;;;;;;4.00;2.55;;;;;;;16.35;42.46;100551.66;4905596;29;20055;-79
2021/10/01 09:59:30;;;;;;;3.47;3.17;;;;;;;16.56;41.67;100530.94;4936123;29;20059;-82
2021/10/01 10:02:10;;;;;;;5.35;3.10;;;;;;;16.63;40.58;100548.31;4919107;29;20066;-75
2021/10/01 10:04:39;;;;;;;4.25;3.30;;;;;;;16.26;41.07;100540.66;4903163;29;20459;-78
2021/10/01 10:07:18;;;;;;;6.27;3.43;;;;;;;16.30;41.83;100540.41;4918665;29;20452;-76
2021/10/01 10:09:55;;;;;;;10.23;4.32;;;;;;;15.85;41.83;100537.88;4902938;29;20381;-76
2021/10/01 10:12:42;;;;;;;7.20;3.50;;;;;;;16.05;41.80;100542.44;4915960;29;20070;-77
2021/10/01 10:15:13;;;;;;;5.97;3.53;;;;;;;16.32;41.39;100528.47;4929189;29;20078;-76
2021/10/01 10:17:47;;;;;;;4.30;3.30;;;;;;;16.38;41.23;100543.28;4935273;29;20043;-76
2021/10/01 10:20:13;;;;;;;6.05;3.90;;;;;;;16.14;41.85;100547.09;4903487;29;20487;-74
2021/10/01 10:22:39;;;;;;;5.47;3.90;;;;;;;15.64;42.39;100544.00;4903450;29;20054;-76
2021/10/01 10:25:05;;;;;;;7.32;3.80;;;;;;;15.60;43.21;100553.34;4936030;29;20551;-76
2021/10/01 10:27:31;;;;;;;7.40;4.15;;;;;;;14.96;44.50;100558.50;4919188;29;20079;-79
2021/10/01 10:29:57;;;;;;;10.77;4.45;;;;;;;14.62;44.97;100550.38;4919214;29;20035;-80
2021/10/01 10:32:25;;;;;;;6.72;4.10;;;;;;;14.76;45.67;100552.88;4919132;29;20525;-78
2021/10/01 10:34:53;;;;;;;8.18;4.35;;;;;;;14.52;45.96;100562.84;4902491;29;20047;-79
2021/10/01 10:37:20;;;;;;;14.43;4.20;;;;;;;14.30;46.25;100551.00;4918644;29;20048;-79
2021/10/01 10:39:49;;;;;;;8.60;4.30;;;;;;;14.45;45.89;100562.44;4918527;29;20114;-78
2021/10/01 10:42:28;;;;;;;7.78;4.30;;;;;;;14.15;46.51;100546.81;4902663;29;20506;-77
2021/10/01 10:45:08;;;;;;;5.00;3.72;;;;;;;14.16;46.36;100559.25;4918936;29;20099;-77
2021/10/01 10:47:45;;;;;;;5.18;4.63;;;;;;;14.05;47.38;100561.91;4883815;29;20043;-77
2021/10/01 10:50:31;;;;;;;9.63;3.65;;;;;;;13.99;47.45;100556.97;4899485;29;20044;-79
2021/10/01 10:53:19;;;;;;;7.97;4.97;;;;;;;13.66;48.63;100561.22;4900051;29;20075;-77
2021/10/01 10:55:51;;;;;;;8.57;4.55;;;;;;;13.46;49.13;100559.09;4899811;29;20135;-78
2021/10/01 11:00:51;;;;;;;7.25;4.60;;;;;;;13.55;49.13;100558.47;4915327;29;20048;-77
2021/10/01 11:03:34;;;;;;;7.25;4.03;;;;;;;13.04;50.33;100569.25;4915512;29;20039;-77
2021/10/01 11:06:20;;;;;;;8.40;4.05;;;;;;;12.79;51.06;100571.00;4914131;29;20047;-77
2021/10/01 11:08:51;;;;;;;6.05;4.10;;;;;;;12.79;50.91;100565.63;4899594;29;20060;-77
2021/10/01 11:11:29;;;;;;;16.10;4.30;;;;;;;12.57;51.45;100554.66;4899734;29;20052;-76
2021/10/01 11:14:14;;;;;;;15.15;4.53;;;;;;;12.79;51.16;100572.81;4915092;29;20067;-78
2021/10/01 11:16:44;;;;;;;11.88;4.70;;;;;;;12.70;50.82;100558.19;4899540;29;20052;-78
2021/10/01 11:19:10;;;;;;;6.10;4.43;;;;;;;12.49;51.63;100548.97;4916857;29;20048;-78
2021/10/01 11:21:42;;;;;;;7.63;4.47;;;;;;;12.63;51.31;100559.59;4918456;29;20044;-77
2021/10/01 11:24:08;;;;;;;7.82;5.10;;;;;;;12.59;51.92;100558.06;4903626;29;20087;-77
2021/10/01 11:26:36;;;;;;;13.23;5.55;;;;;;;12.52;51.66;100557.63;4918707;29;20568;-77
2021/10/01 11:29:04;;;;;;;7.70;5.53;;;;;;;12.54;52.12;100560.22;4902497;29;20059;-76
2021/10/01 11:31:40;;;;;;;13.27;4.93;;;;;;;12.51;52.09;100553.25;4918988;29;20138;-77
2021/10/01 11:34:06;;;;;;;7.60;4.53;;;;;;;12.57;51.56;100560.88;4918233;29;20102;-78
2021/10/01 11:36:36;;;;;;;7.97;4.35;;;;;;;12.38;52.63;100550.56;4902737;29;20048;-77
2021/10/01 11:39:09;;;;;;;20.67;4.68;;;;;;;12.29;52.95;100558.34;4934579;29;20054;-78
2021/10/01 11:41:43;;;;;;;16.25;4.50;;;;;;;12.32;53.04;100564.38;4918768;29;20047;-78
2021/10/01 11:44:09;;;;;;;6.00;4.47;;;;;;;12.21;53.11;100564.22;4919192;29;20151;-77
2021/10/01 11:46:37;;;;;;;7.03;4.78;;;;;;;12.22;53.27;100565.94;4902277;29;20051;-78
2021/10/01 11:49:07;;;;;;;10.70;5.27;;;;;;;12.27;52.97;100562.97;4918299;29;20047;-78
2021/10/01 11:51:33;;;;;;;7.78;4.93;;;;;;;12.43;52.90;100568.16;4918388;29;20514;-77
2021/10/01 11:54:13;;;;;;;7.55;4.75;;;;;;;12.30;52.98;100560.09;4925307;29;20052;-77
2021/10/01 11:56:40;;;;;;;11.60;5.10;;;;;;;12.35;52.86;100572.22;4902421;29;20051;-77
2021/10/01 11:59:06;;;;;;;10.20;5.28;;;;;;;12.31;53.04;100576.06;4934145;29;20071;-77
2021/10/01 12:01:32;;;;;;;10.70;4.68;;;;;;;12.34;52.63;100570.50;4918093;29;20507;-77
2021/10/01 12:03:59;;;;;;;11.52;4.65;;;;;;;12.18;52.77;100559.06;4935499;29;20051;-77
2021/10/01 12:06:30;;;;;;;6.22;4.90;;;;;;;12.23;52.75;100546.25;4921634;29;20050;-78
2021/10/01 12:09:00;;;;;;;9.30;5.10;;;;;;;12.13;53.20;100555.84;4937476;29;20039;-78
2021/10/01 12:11:35;;;;;;;7.68;5.03;;;;;;;12.26;52.79;100556.75;4891092;29;20111;-77
2021/10/01 12:14:11;;;;;;;8.70;5.13;;;;;;;12.18;53.25;100552.84;4921655;29;20083;-76
2021/10/01 12:16:39;;;;;;;6.72;5.03;;;;;;;12.20;53.27;100567.88;4905684;29;20086;-76
2021/10/01 12:19:06;;;;;;;8.70;4.93;;;;;;;12.21;53.10;100558.03;4906005;29;20507;-77
2021/10/01 12:21:35;;;;;;;8.60;5.22;;;;;;;12.32;52.78;100564.38;4897309;29;20063;-77
2021/10/01 12:24:01;;;;;;;7.03;5.30;;;;;;;12.47;52.80;100564.28;4872826;29;20047;-77
2021/10/01 12:26:32;;;;;;;8.95;5.53;;;;;;;12.46;52.62;100562.59;4905732;29;20055;-77
2021/10/01 12:29:04;;;;;;;11.48;5.30;;;;;;;12.55;52.54;100562.78;4921462;29;20575;-77
2021/10/01 12:31:54;;;;;;;12.82;5.07;;;;;;;12.51;52.66;100560.44;4905797;29;20076;-77
2021/10/01 12:34:30;;;;;;;5.93;4.97;;;;;;;12.38;52.67;100550.56;4902758;29;20048;-77
2021/10/01 12:37:04;;;;;;;8.13;5.32;;;;;;;12.36;53.01;100568.56;4918943;29;20056;-76
2021/10/01 12:39:31;;;;;;;9.35;4.90;;;;;;;12.16;52.99;100555.66;4921396;29;20055;-77
2021/10/01 12:42:01;;;;;;;8.50;4.88;;;;;;;12.28;53.11;100570.91;4905586;29;20043;-75
2021/10/01 12:44:27;;;;;;;9.68;5.00;;;;;;;12.21;52.98;100556.19;4905570;29;20502;-77
2021/10/01 12:46:54;;;;;;;10.20;5.97;;;;;;;12.30;52.75;100550.22;4921224;29;20047;-78
2021/10/01 12:49:20;;;;;;;11.23;5.35;;;;;;;12.44;52.59;100556.44;4920971;29;20071;-78
2021/10/01 12:52:13;;;;;;;12.02;5.65;;;;;;;12.45;53.04;100560.84;4936473;29;20069;-77
2021/10/01 12:54:42;;;;;;;9.25;5.15;;;;;;;12.39;52.66;100562.13;4904211;29;20059;-78
2021/10/01 12:57:35;;;;;;;10.88;5.45;;;;;;;12.44;52.83;100553.78;4937535;29;20043;-75
2021/10/01 13:00:01;;;;;;;13.10;5.53;;;;;;;12.51;52.52;100560.44;4936631;29;20135;-78
2021/10/01 13:02:44;;;;;;;10.23;4.88;;;;;;;12.50;52.44;100564.94;4905103;29;20469;-79
2021/10/01 13:05:29;;;;;;;21.58;5.30;;;;;;;12.30;52.67;100563.63;4905172;29;20052;-78
2021/10/01 13:07:59;;;;;;;13.35;5.32;;;;;;;12.22;52.87;100565.09;4920717;29;20051;-77
2021/10/01 13:10:26;;;;;;;8.05;4.97;;;;;;;12.04;53.35;100570.75;4936677;29;20039;-77
2021/10/01 13:13:01;;;;;;;5.65;4.18;;;;;;;11.89;53.96;100569.94;4936489;29;20040;-77
2021/10/01 13:15:34;;;;;;;6.40;4.13;;;;;;;11.72;54.27;100559.41;4903481;29;20503;-76
2021/10/01 13:18:07;;;;;;;4.60;3.70;;;;;;;11.43;55.54;100563.97;4936326;29;20043;-77